createdAt,value
2018-06-24T00:02:43.752Z,16.64
2018-06-24T00:05:14.759Z,16.52
2018-06-24T00:07:45.866Z,16.49
2018-06-24T00:10:17.356Z,16.47
2018-06-24T00:12:48.491Z,16.45
2018-06-24T00:15:19.546Z,16.43
2018-06-24T00:17:50.914Z,16.45
2018-06-24T00:20:21.898Z,16.35
2018-06-24T00:22:52.911Z,16.31
2018-06-24T00:25:23.833Z,16.25
2018-06-24T00:27:54.666Z,16.14
2018-06-24T00:30:25.681Z,16.09
2018-06-24T00:32:56.975Z,16.11
2018-06-24T00:35:28.027Z,16.07
2018-06-24T00:37:59.090Z,16.01
2018-06-24T00:40:30.500Z,15.94
2018-06-24T00:43:01.714Z,15.88
2018-06-24T00:45:32.826Z,15.85
2018-06-24T00:48:03.939Z,15.83
2018-06-24T00:50:35.150Z,15.83
2018-06-24T00:53:06.011Z,15.81
2018-06-24T00:55:37.209Z,15.84
2018-06-24T00:58:09.293Z,15.83
2018-06-24T01:00:40.541Z,15.86
2018-06-24T01:03:11.622Z,15.83
2018-06-24T01:05:42.779Z,15.73
2018-06-24T01:08:13.974Z,15.69
2018-06-24T01:10:45.436Z,15.74
2018-06-24T01:13:16.673Z,15.79
2018-06-24T01:15:47.994Z,15.72
2018-06-24T01:18:18.954Z,15.60
2018-06-24T01:20:50.235Z,15.52
2018-06-24T01:23:21.606Z,15.58
2018-06-24T01:25:52.696Z,15.60
2018-06-24T01:28:23.765Z,15.52
2018-06-24T01:30:54.618Z,15.63
2018-06-24T01:33:25.658Z,15.55
2018-06-24T01:35:57.081Z,15.53
2018-06-24T01:38:29.458Z,15.63
2018-06-24T01:41:00.605Z,15.64
2018-06-24T01:43:31.543Z,15.59
2018-06-24T01:46:02.767Z,15.58
2018-06-24T01:48:33.889Z,15.44
2018-06-24T01:51:05.021Z,15.42
2018-06-24T01:53:36.296Z,15.32
2018-06-24T01:56:07.318Z,15.34
2018-06-24T01:58:38.580Z,15.32
2018-06-24T02:01:10.490Z,15.36
2018-06-24T02:03:41.827Z,15.41
2018-06-24T02:06:13.019Z,15.38
2018-06-24T02:08:44.153Z,15.54
2018-06-24T02:11:15.141Z,15.54
2018-06-24T02:13:46.188Z,15.45
2018-06-24T02:16:17.276Z,15.45
2018-06-24T02:18:48.306Z,15.60
2018-06-24T02:21:19.218Z,15.52
2018-06-24T02:23:50.529Z,15.44
2018-06-24T02:26:21.402Z,15.46
2018-06-24T02:28:52.419Z,15.44
2018-06-24T02:31:23.515Z,15.49
2018-06-24T02:33:54.863Z,15.53
2018-06-24T02:36:25.586Z,15.51
2018-06-24T02:38:56.591Z,15.50
2018-06-24T02:41:27.548Z,15.55
2018-06-24T02:43:58.654Z,15.62
2018-06-24T02:46:29.694Z,15.64
2018-06-24T02:49:00.842Z,15.68
2018-06-24T02:51:32.524Z,15.72
2018-06-24T02:54:03.590Z,15.76
2018-06-24T02:56:34.599Z,15.84
2018-06-24T02:59:05.856Z,15.89
2018-06-24T03:01:36.873Z,16.04
2018-06-24T03:04:09.538Z,16.19
2018-06-24T03:06:40.655Z,16.45
2018-06-24T03:09:12.422Z,17.15
2018-06-24T03:11:43.830Z,17.96
2018-06-24T03:14:15.796Z,20.16
2018-06-24T03:16:47.158Z,21.70
2018-06-24T03:19:18.182Z,22.43
2018-06-24T03:21:49.357Z,23.43
2018-06-24T03:24:20.343Z,24.60
2018-06-24T03:26:51.447Z,26.33
2018-06-24T03:29:22.995Z,27.51
2018-06-24T03:31:54.280Z,28.89
2018-06-24T03:34:25.564Z,30.01
2018-06-24T03:36:56.679Z,30.94
2018-06-24T03:39:27.822Z,31.57
2018-06-24T03:41:59.001Z,31.92
2018-06-24T03:44:30.851Z,32.51
2018-06-24T03:47:01.825Z,30.55
2018-06-24T03:49:33.159Z,31.25
2018-06-24T03:52:04.114Z,31.50
2018-06-24T03:54:35.161Z,31.76
2018-06-24T03:57:06.646Z,31.39
2018-06-24T03:59:37.656Z,31.29
2018-06-24T04:02:09.006Z,30.95
2018-06-24T04:04:40.459Z,31.18
2018-06-24T04:07:11.405Z,32.72
2018-06-24T04:09:42.719Z,34.45
2018-06-24T04:12:13.858Z,35.28
2018-06-24T04:14:44.973Z,36.62
2018-06-24T04:17:16.506Z,36.27
2018-06-24T04:19:47.779Z,37.61
2018-06-24T04:22:18.691Z,37.89
2018-06-24T04:24:49.975Z,38.82
2018-06-24T04:27:21.975Z,38.79
2018-06-24T04:29:53.238Z,39.78
2018-06-24T04:32:24.324Z,40.16
2018-06-24T04:34:55.467Z,38.72
2018-06-24T04:37:26.312Z,38.41
2018-06-24T04:39:57.354Z,39.98
2018-06-24T04:42:28.518Z,40.74
2018-06-24T04:44:59.526Z,40.65
2018-06-24T04:47:30.778Z,40.15
2018-06-24T04:50:01.830Z,39.03
2018-06-24T04:52:33.269Z,39.68
2018-06-24T04:55:04.469Z,39.77
2018-06-24T04:57:35.298Z,35.54
2018-06-24T05:00:06.687Z,36.19
2018-06-24T05:02:37.311Z,37.87
2018-06-24T05:05:08.109Z,40.34
2018-06-24T05:07:38.927Z,41.45
2018-06-24T05:10:09.747Z,41.73
2018-06-24T05:12:40.527Z,42.19
2018-06-24T05:15:11.703Z,43.33
2018-06-24T05:17:43.451Z,43.69
2018-06-24T05:20:14.646Z,41.14
2018-06-24T05:22:45.785Z,38.01
2018-06-24T05:25:16.791Z,39.75
2018-06-24T05:27:48.055Z,41.42
2018-06-24T05:30:19.262Z,41.55
2018-06-24T05:32:50.268Z,42.32
2018-06-24T05:35:21.346Z,41.16
2018-06-24T05:37:52.513Z,38.57
2018-06-24T05:40:23.459Z,42.00
2018-06-24T05:42:54.532Z,43.40
2018-06-24T05:45:25.779Z,39.12
2018-06-24T05:47:57.186Z,40.21
2018-06-24T05:50:28.287Z,41.04
2018-06-24T05:52:59.385Z,42.39
2018-06-24T05:55:30.546Z,41.40
2018-06-24T05:58:01.738Z,42.12
2018-06-24T06:00:32.618Z,43.06
2018-06-24T06:03:04.196Z,44.40
2018-06-24T06:05:35.339Z,44.20
2018-06-24T06:08:06.696Z,44.95
2018-06-24T06:10:37.448Z,45.46
2018-06-24T06:13:08.625Z,46.01
2018-06-24T06:15:39.363Z,43.65
2018-06-24T06:18:09.949Z,41.56
2018-06-24T06:20:40.854Z,40.65
2018-06-24T06:23:11.621Z,41.03
2018-06-24T06:25:42.474Z,39.71
2018-06-24T06:28:13.467Z,42.94
2018-06-24T06:30:44.771Z,40.65
2018-06-24T06:33:15.406Z,42.35
2018-06-24T06:35:46.155Z,40.09
2018-06-24T06:38:16.894Z,41.26
2018-06-24T06:40:47.602Z,41.92
2018-06-24T06:43:18.372Z,41.29
2018-06-24T06:45:49.221Z,41.91
2018-06-24T06:48:20.588Z,42.86
2018-06-24T06:50:51.692Z,42.89
2018-06-24T06:53:22.824Z,41.73
2018-06-24T06:55:54.352Z,42.71
2018-06-24T06:58:25.314Z,40.07
2018-06-24T07:00:56.108Z,39.97
2018-06-24T07:03:27.482Z,42.37
2018-06-24T07:05:58.477Z,42.43
2018-06-24T07:08:29.628Z,43.19
2018-06-24T07:11:00.981Z,44.12
2018-06-24T07:13:32.027Z,44.14
2018-06-24T07:16:03.172Z,43.84
2018-06-24T07:18:34.362Z,42.43
2018-06-24T07:21:05.714Z,41.83
2018-06-24T07:23:36.633Z,42.03
2018-06-24T07:26:07.720Z,42.75
2018-06-24T07:28:39.722Z,40.68
2018-06-24T07:31:10.904Z,40.21
2018-06-24T07:33:42.009Z,40.85
2018-06-24T07:36:13.535Z,40.02
2018-06-24T07:38:44.774Z,40.59
2018-06-24T07:41:16.080Z,41.03
2018-06-24T07:43:47.317Z,39.51
2018-06-24T07:46:18.571Z,36.98
2018-06-24T07:48:50.547Z,36.94
2018-06-24T07:51:21.729Z,35.37
2018-06-24T07:53:52.952Z,37.16
2018-06-24T07:56:24.328Z,37.26
2018-06-24T07:58:55.879Z,36.77
2018-06-24T08:01:27.095Z,35.47
2018-06-24T08:03:58.165Z,35.97
2018-06-24T08:06:29.395Z,37.47
2018-06-24T08:09:00.544Z,34.93
2018-06-24T08:11:32.898Z,33.68
2018-06-24T08:14:04.421Z,34.59
2018-06-24T08:16:35.569Z,33.22
2018-06-24T08:19:06.680Z,29.89
2018-06-24T08:21:38.182Z,29.18
2018-06-24T08:24:09.498Z,27.84
2018-06-24T08:26:40.785Z,26.73
2018-06-24T08:29:11.681Z,25.70
2018-06-24T08:31:42.881Z,25.54
2018-06-24T08:34:14.215Z,25.55
2018-06-24T08:36:45.599Z,25.20
2018-06-24T08:39:16.676Z,25.16
2018-06-24T08:41:47.966Z,24.75
2018-06-24T08:44:19.107Z,25.00
2018-06-24T08:46:50.516Z,25.21
2018-06-24T08:49:21.746Z,25.38
2018-06-24T08:51:53.210Z,25.68
2018-06-24T08:54:24.435Z,25.66
2018-06-24T08:56:55.530Z,25.73
2018-06-24T08:59:26.545Z,25.56
2018-06-24T09:01:57.803Z,25.88
2018-06-24T09:04:28.941Z,26.39
2018-06-24T09:07:00.972Z,26.59
2018-06-24T09:09:32.056Z,26.85
2018-06-24T09:12:03.601Z,26.94
2018-06-24T09:14:34.746Z,27.09
2018-06-24T09:17:05.832Z,27.25
2018-06-24T09:19:37.861Z,26.98
2018-06-24T09:22:09.127Z,26.35
2018-06-24T09:24:40.647Z,26.08
2018-06-24T09:27:12.087Z,24.73
2018-06-24T09:29:42.953Z,25.37
2018-06-24T09:32:14.031Z,25.60
2018-06-24T09:34:45.199Z,25.91
2018-06-24T09:37:17.115Z,26.17
2018-06-24T09:39:48.273Z,26.47
2018-06-24T09:42:19.400Z,26.74
2018-06-24T09:44:51.610Z,27.00
2018-06-24T09:47:23.638Z,26.60
2018-06-24T09:49:54.726Z,26.77
2018-06-24T09:52:25.967Z,26.50
2018-06-24T09:54:57.020Z,25.77
2018-06-24T09:57:29.299Z,25.92
2018-06-24T10:00:00.480Z,26.27
2018-06-24T10:02:32.283Z,26.50
2018-06-24T10:05:03.124Z,26.64
2018-06-24T10:07:35.053Z,27.17
2018-06-24T10:10:05.960Z,27.50
2018-06-24T10:12:37.036Z,27.16
2018-06-24T10:15:08.763Z,27.30
2018-06-24T10:17:40.478Z,27.25
2018-06-24T10:20:11.597Z,26.98
2018-06-24T10:22:43.178Z,27.03
2018-06-24T10:25:14.274Z,26.81
2018-06-24T10:27:45.493Z,26.86
2018-06-24T10:30:16.881Z,27.29
2018-06-24T10:32:48.326Z,27.17
2018-06-24T10:35:20.263Z,27.78
2018-06-24T10:37:51.383Z,27.50
2018-06-24T10:40:22.592Z,26.99
2018-06-24T10:42:53.949Z,27.46
2018-06-24T10:45:25.223Z,27.75
2018-06-24T10:47:56.324Z,27.66
2018-06-24T10:50:27.652Z,27.28
2018-06-24T10:52:58.622Z,27.56
2018-06-24T10:55:29.980Z,27.46
2018-06-24T10:58:01.163Z,27.56
2018-06-24T11:00:32.347Z,27.69
2018-06-24T11:03:03.844Z,27.35
2018-06-24T11:05:34.722Z,27.39
2018-06-24T11:08:05.831Z,27.05
2018-06-24T11:10:36.866Z,26.25
2018-06-24T11:13:08.734Z,26.85
2018-06-24T11:15:39.778Z,26.84
2018-06-24T11:18:10.942Z,26.49
2018-06-24T11:20:41.917Z,26.15
2018-06-24T11:23:13.319Z,26.47
2018-06-24T11:25:44.513Z,25.98
2018-06-24T11:28:15.721Z,26.50
2018-06-24T11:30:46.651Z,26.70
2018-06-24T11:33:17.861Z,26.85
2018-06-24T11:35:49.049Z,26.61
2018-06-24T11:38:20.544Z,26.49
2018-06-24T11:40:51.512Z,26.50
2018-06-24T11:43:23.250Z,26.02
2018-06-24T11:45:54.462Z,25.96
2018-06-24T11:48:25.537Z,25.76
2018-06-24T11:50:56.723Z,25.45
2018-06-24T11:53:27.957Z,25.30
2018-06-24T11:55:59.359Z,24.52
2018-06-24T11:58:30.576Z,24.33
2018-06-24T12:01:01.668Z,24.47
2018-06-24T12:03:32.900Z,23.89
2018-06-24T12:06:04.324Z,24.33
2018-06-24T12:08:35.343Z,24.81
2018-06-24T12:11:06.818Z,24.33
2018-06-24T12:13:38.063Z,24.86
2018-06-24T12:16:08.951Z,24.26
2018-06-24T12:18:40.188Z,24.17
2018-06-24T12:21:11.188Z,24.93
2018-06-24T12:23:42.221Z,25.36
2018-06-24T12:26:13.512Z,25.29
2018-06-24T12:28:44.701Z,25.54
2018-06-24T12:31:16.016Z,25.35
2018-06-24T12:33:47.401Z,25.26
2018-06-24T12:36:18.656Z,25.25
2018-06-24T12:38:49.683Z,25.41
2018-06-24T12:41:20.863Z,25.10
2018-06-24T12:43:51.868Z,25.25
2018-06-24T12:46:22.989Z,24.09
2018-06-24T12:48:54.774Z,24.06
2018-06-24T12:51:26.500Z,24.38
2018-06-24T12:53:57.758Z,24.25
2018-06-24T12:56:28.956Z,24.03
2018-06-24T12:59:00.152Z,23.67
2018-06-24T13:01:31.367Z,23.76
2018-06-24T13:04:02.895Z,23.86
2018-06-24T13:06:33.980Z,24.10
2018-06-24T13:09:06.885Z,24.28
2018-06-24T13:11:37.769Z,24.18
2018-06-24T13:14:08.931Z,24.31
2018-06-24T13:16:39.993Z,24.10
2018-06-24T13:19:11.076Z,24.44
2018-06-24T13:21:42.293Z,24.54
2018-06-24T13:24:13.664Z,24.17
2018-06-24T13:26:44.880Z,24.41
2018-06-24T13:29:16.270Z,24.44
2018-06-24T13:31:47.362Z,24.54
2018-06-24T13:34:18.678Z,24.59
2018-06-24T13:36:50.010Z,24.43
2018-06-24T13:39:20.944Z,23.68
2018-06-24T13:41:52.175Z,23.75
2018-06-24T13:44:23.674Z,23.48
2018-06-24T13:46:55.255Z,23.50
2018-06-24T13:49:26.659Z,23.70
2018-06-24T13:51:58.015Z,24.01
2018-06-24T13:54:29.217Z,23.84
2018-06-24T13:57:00.509Z,24.07
2018-06-24T13:59:31.532Z,23.91
2018-06-24T14:02:02.978Z,23.88
2018-06-24T14:04:34.153Z,24.06
2018-06-24T14:07:06.102Z,24.10
2018-06-24T14:09:37.524Z,24.11
2018-06-24T14:12:09.687Z,23.98
2018-06-24T14:14:40.953Z,23.84
2018-06-24T14:17:13.155Z,23.77
2018-06-24T14:19:44.425Z,23.24
2018-06-24T14:22:15.892Z,22.72
2018-06-24T14:24:48.097Z,22.64
2018-06-24T14:27:19.241Z,22.35
2018-06-24T14:29:50.936Z,22.29
2018-06-24T14:32:22.455Z,22.42
2018-06-24T14:34:53.826Z,22.68
2018-06-24T14:37:25.799Z,22.76
2018-06-24T14:39:57.020Z,22.90
2018-06-24T14:42:28.585Z,22.91
2018-06-24T14:45:00.191Z,22.97
2018-06-24T14:47:31.585Z,23.21
2018-06-24T14:50:02.943Z,23.41
2018-06-24T14:52:33.985Z,23.42
2018-06-24T14:55:05.352Z,23.80
2018-06-24T14:57:37.053Z,24.06
2018-06-24T15:00:08.395Z,24.02
2018-06-24T15:02:42.157Z,24.20
2018-06-24T15:05:13.898Z,24.33
2018-06-24T15:07:45.682Z,24.43
2018-06-24T15:10:18.265Z,24.52
2018-06-24T15:12:49.367Z,24.47
2018-06-24T15:15:20.510Z,23.83
2018-06-24T15:17:51.878Z,23.88
2018-06-24T15:20:24.691Z,23.64
2018-06-24T15:22:55.939Z,23.90
2018-06-24T15:25:27.257Z,23.99
2018-06-24T15:27:58.581Z,23.75
2018-06-24T15:30:29.924Z,23.53
2018-06-24T15:33:01.400Z,23.54
2018-06-24T15:35:32.711Z,23.70
2018-06-24T15:38:03.638Z,23.73
2018-06-24T15:40:34.810Z,23.83
2018-06-24T15:43:06.332Z,22.84
2018-06-24T15:45:37.590Z,23.17
2018-06-24T15:48:08.802Z,23.35
2018-06-24T15:50:41.054Z,22.97
2018-06-24T15:53:12.658Z,23.23
2018-06-24T15:55:44.482Z,23.32
2018-06-24T15:58:15.860Z,23.30
2018-06-24T16:00:47.200Z,22.74
2018-06-24T16:03:18.965Z,22.10
2018-06-24T16:05:50.111Z,22.32
2018-06-24T16:08:21.295Z,21.93
2018-06-24T16:10:52.832Z,22.17
2018-06-24T16:13:24.193Z,22.20
2018-06-24T16:15:55.675Z,22.22
2018-06-24T16:18:26.972Z,22.28
2018-06-24T16:20:59.120Z,22.02
2018-06-24T16:23:30.912Z,21.97
2018-06-24T16:26:02.206Z,22.02
2018-06-24T16:28:33.272Z,22.11
2018-06-24T16:31:04.386Z,22.04
2018-06-24T16:33:35.584Z,21.96
2018-06-24T16:36:07.275Z,21.96
2018-06-24T16:38:38.510Z,21.84
2018-06-24T16:41:09.757Z,21.70
2018-06-24T16:43:42.026Z,21.66
2018-06-24T16:46:13.287Z,21.46
2018-06-24T16:48:44.667Z,21.58
2018-06-24T16:51:16.175Z,21.52
2018-06-24T16:53:47.474Z,21.44
2018-06-24T16:56:18.623Z,21.42
2018-06-24T16:58:49.931Z,21.18
2018-06-24T17:01:21.111Z,21.16
2018-06-24T17:03:52.736Z,21.15
2018-06-24T17:06:24.028Z,20.98
2018-06-24T17:08:55.433Z,21.08
2018-06-24T17:11:27.516Z,21.10
2018-06-24T17:13:59.449Z,21.13
2018-06-24T17:16:30.804Z,21.11
2018-06-24T17:19:01.986Z,21.10
2018-06-24T17:21:33.524Z,21.08
2018-06-24T17:24:05.050Z,21.08
2018-06-24T17:26:36.256Z,21.01
2018-06-24T17:29:07.448Z,20.87
2018-06-24T17:31:38.624Z,20.87
2018-06-24T17:34:10.697Z,20.74
2018-06-24T17:36:42.006Z,20.60
2018-06-24T17:39:13.696Z,20.63
2018-06-24T17:41:46.864Z,20.64
2018-06-24T17:44:18.739Z,20.42
2018-06-24T17:46:50.198Z,20.27
2018-06-24T17:49:21.352Z,20.27
2018-06-24T17:51:52.710Z,20.23
2018-06-24T17:54:23.928Z,20.21
2018-06-24T17:56:55.247Z,20.13
2018-06-24T17:59:26.276Z,20.13
2018-06-24T18:01:57.446Z,20.16
2018-06-24T18:04:28.801Z,20.15
2018-06-24T18:07:00.189Z,20.26
2018-06-24T18:09:31.421Z,20.10
2018-06-24T18:12:02.782Z,20.15
2018-06-24T18:14:34.461Z,20.11
2018-06-24T18:17:05.799Z,20.08
2018-06-24T18:19:37.120Z,20.06
2018-06-24T18:22:08.545Z,20.07
2018-06-24T18:24:39.842Z,20.05
2018-06-24T18:27:10.878Z,20.02
2018-06-24T18:29:42.028Z,19.98
2018-06-24T18:32:13.367Z,20.03
2018-06-24T18:34:44.579Z,20.03
2018-06-24T18:37:15.845Z,19.99
2018-06-24T18:39:47.073Z,19.98
2018-06-24T18:42:18.262Z,19.92
2018-06-24T18:44:49.398Z,19.92
2018-06-24T18:47:20.771Z,19.94
2018-06-24T18:49:52.109Z,19.89
2018-06-24T18:52:23.601Z,19.85
2018-06-24T18:54:54.731Z,19.86
2018-06-24T18:57:26.020Z,19.81
2018-06-24T18:59:56.988Z,19.65
2018-06-24T19:02:29.325Z,19.62
2018-06-24T19:05:00.563Z,19.57
2018-06-24T19:07:31.412Z,19.57
2018-06-24T19:10:02.556Z,19.63
2018-06-24T19:12:34.379Z,19.64
2018-06-24T19:15:05.739Z,19.67
2018-06-24T19:17:42.484Z,19.68
2018-06-24T19:20:13.683Z,19.67
2018-06-24T19:22:44.816Z,19.62
2018-06-24T19:25:15.954Z,19.55
2018-06-24T19:27:47.457Z,19.53
2018-06-24T19:30:21.646Z,19.55
2018-06-24T19:32:52.730Z,19.45
2018-06-24T19:35:23.796Z,19.45
2018-06-24T19:37:54.681Z,19.43
2018-06-24T19:40:25.673Z,19.43
2018-06-24T19:42:56.883Z,19.35
2018-06-24T19:45:28.153Z,19.42
2018-06-24T19:48:00.181Z,19.46
2018-06-24T19:50:31.470Z,19.47
2018-06-24T19:53:03.464Z,19.55
2018-06-24T19:55:34.500Z,19.59
2018-06-24T19:58:05.775Z,19.54
2018-06-24T20:00:36.877Z,19.54
2018-06-24T20:03:08.907Z,19.46
2018-06-24T20:05:40.185Z,19.38
2018-06-24T20:08:11.287Z,19.45
2018-06-24T20:10:42.411Z,19.51
2018-06-24T20:13:13.875Z,19.46
2018-06-24T20:15:44.887Z,19.46
2018-06-24T20:18:16.045Z,19.51
2018-06-24T20:20:47.075Z,19.51
2018-06-24T20:23:25.135Z,19.52
2018-06-24T20:25:56.223Z,19.47
2018-06-24T20:28:27.458Z,19.49
2018-06-24T20:30:58.945Z,19.39
2018-06-24T20:33:30.151Z,19.39
2018-06-24T20:36:01.244Z,19.31
2018-06-24T20:38:32.365Z,19.30
2018-06-24T20:41:03.597Z,19.31
2018-06-24T20:43:34.694Z,19.29
2018-06-24T20:46:06.240Z,19.35
2018-06-24T20:48:37.271Z,19.37
2018-06-24T20:51:08.798Z,19.33
2018-06-24T20:53:39.975Z,19.37
2018-06-24T20:56:11.198Z,19.41
2018-06-24T20:58:42.557Z,19.43
2018-06-24T21:01:14.770Z,19.43
2018-06-24T21:03:45.922Z,19.34
2018-06-24T21:06:17.058Z,19.43
2018-06-24T21:08:50.368Z,19.46
2018-06-24T21:11:21.516Z,19.45
2018-06-24T21:13:52.883Z,19.41
2018-06-24T21:16:24.065Z,19.43
2018-06-24T21:18:56.528Z,19.51
2018-06-24T21:21:27.729Z,19.55
2018-06-24T21:23:58.722Z,19.48
2018-06-24T21:26:29.935Z,19.47
2018-06-24T21:29:01.026Z,19.45
2018-06-24T21:31:32.981Z,19.46
2018-06-24T21:34:04.492Z,19.43
2018-06-24T21:36:35.840Z,19.53
2018-06-24T21:39:09.272Z,19.56
2018-06-24T21:41:40.372Z,19.53
2018-06-24T21:44:11.454Z,19.56
2018-06-24T21:46:43.513Z,19.53
2018-06-24T21:49:14.647Z,19.47
2018-06-24T21:51:45.797Z,19.36
2018-06-24T21:54:17.085Z,19.38
2018-06-24T21:56:49.425Z,19.28
2018-06-24T21:59:21.737Z,19.16
2018-06-24T22:01:52.901Z,19.01
2018-06-24T22:04:24.330Z,18.87
2018-06-24T22:06:55.675Z,18.70
2018-06-24T22:09:26.692Z,18.62
2018-06-24T22:11:58.345Z,18.54
2018-06-24T22:14:29.597Z,18.44
2018-06-24T22:17:00.733Z,18.40
2018-06-24T22:19:32.071Z,18.31
2018-06-24T22:22:03.084Z,18.22
2018-06-24T22:24:34.205Z,18.14
2018-06-24T22:27:06.161Z,18.02
2018-06-24T22:29:37.208Z,17.95
2018-06-24T22:32:08.345Z,17.94
2018-06-24T22:34:40.638Z,17.92
2018-06-24T22:37:11.527Z,17.88
2018-06-24T22:39:42.502Z,17.85
2018-06-24T22:42:13.530Z,17.77
2018-06-24T22:44:44.892Z,17.78
2018-06-24T22:47:17.001Z,17.69
2018-06-24T22:49:48.340Z,17.59
2018-06-24T22:52:19.633Z,17.57
2018-06-24T22:54:51.045Z,17.57
2018-06-24T22:57:22.257Z,17.46
2018-06-24T23:00:05.587Z,17.44
2018-06-24T23:02:36.470Z,17.41
2018-06-24T23:05:08.303Z,17.37
2018-06-24T23:07:39.998Z,17.34
2018-06-24T23:10:12.359Z,17.35
2018-06-24T23:12:43.749Z,17.33
2018-06-24T23:15:14.904Z,17.29
2018-06-24T23:17:46.126Z,17.27
2018-06-24T23:20:17.489Z,17.25
2018-06-24T23:22:48.705Z,17.25
2018-06-24T23:25:21.774Z,17.22
2018-06-24T23:27:53.676Z,17.15
2018-06-24T23:30:25.002Z,17.19
2018-06-24T23:32:56.703Z,17.16
2018-06-24T23:35:27.834Z,17.17
2018-06-24T23:37:59.251Z,17.18
2018-06-24T23:40:30.370Z,17.11
2018-06-24T23:43:02.502Z,17.13
2018-06-24T23:45:34.520Z,17.09
2018-06-24T23:48:05.883Z,17.07
2018-06-24T23:50:37.189Z,17.09
2018-06-24T23:53:08.794Z,17.19
2018-06-24T23:55:40.135Z,17.22
2018-06-24T23:58:11.198Z,17.17
